sensor_id;sensor_type;location;lat;lon;timestamp;P1;durP1;ratioP1;P2;durP2;ratioP2
72904;SDS011;61048;52.162;4.516;2023-01-06T00:00:30;2.40;;;0.32;;
72904;SDS011;61048;52.162;4.516;2023-01-06T00:02:58;4.30;;;0.75;;
72904;SDS011;61048;52.162;4.516;2023-01-06T00:05:25;3.60;;;0.88;;
72904;SDS011;61048;52.162;4.516;2023-01-06T00:07:53;2.95;;;1.00;;
72904;SDS011;61048;52.162;4.516;2023-01-06T00:10:20;2.92;;;0.30;;
72904;SDS011;61048;52.162;4.516;2023-01-06T00:12:47;3.35;;;0.70;;
72904;SDS011;61048;52.162;4.516;2023-01-06T00:15:15;4.90;;;1.45;;
72904;SDS011;61048;52.162;4.516;2023-01-06T00:17:43;1.77;;;0.30;;
72904;SDS011;61048;52.162;4.516;2023-01-06T00:20:12;2.90;;;0.70;;
72904;SDS011;61048;52.162;4.516;2023-01-06T00:22:39;2.88;;;0.90;;
72904;SDS011;61048;52.162;4.516;2023-01-06T00:25:07;2.67;;;0.40;;
72904;SDS011;61048;52.162;4.516;2023-01-06T00:27:35;3.75;;;0.85;;
72904;SDS011;61048;52.162;4.516;2023-01-06T00:30:03;2.22;;;0.70;;
72904;SDS011;61048;52.162;4.516;2023-01-06T00:32:30;2.45;;;0.88;;
72904;SDS011;61048;52.162;4.516;2023-01-06T00:34:57;3.58;;;0.75;;
72904;SDS011;61048;52.162;4.516;2023-01-06T00:37:25;2.35;;;0.70;;
72904;SDS011;61048;52.162;4.516;2023-01-06T00:39:52;3.15;;;0.47;;
72904;SDS011;61048;52.162;4.516;2023-01-06T00:42:19;2.22;;;0.40;;
72904;SDS011;61048;52.162;4.516;2023-01-06T00:44:46;2.30;;;0.22;;
72904;SDS011;61048;52.162;4.516;2023-01-06T00:47:13;2.08;;;0.75;;
72904;SDS011;61048;52.162;4.516;2023-01-06T00:49:40;2.72;;;0.30;;
72904;SDS011;61048;52.162;4.516;2023-01-06T00:52:07;1.55;;;0.20;;
72904;SDS011;61048;52.162;4.516;2023-01-06T00:54:35;1.92;;;0.45;;
72904;SDS011;61048;52.162;4.516;2023-01-06T00:57:04;1.80;;;0.40;;
72904;SDS011;61048;52.162;4.516;2023-01-06T00:59:32;1.80;;;0.30;;
72904;SDS011;61048;52.162;4.516;2023-01-06T01:01:59;1.35;;;0.20;;
72904;SDS011;61048;52.162;4.516;2023-01-06T01:04:26;2.30;;;0.40;;
72904;SDS011;61048;52.162;4.516;2023-01-06T01:06:54;2.05;;;0.40;;
72904;SDS011;61048;52.162;4.516;2023-01-06T01:09:22;2.83;;;0.30;;
72904;SDS011;61048;52.162;4.516;2023-01-06T01:11:51;1.98;;;0.38;;
72904;SDS011;61048;52.162;4.516;2023-01-06T01:14:39;1.50;;;0.32;;
72904;SDS011;61048;52.162;4.516;2023-01-06T01:17:09;3.05;;;0.73;;
72904;SDS011;61048;52.162;4.516;2023-01-06T01:19:37;1.90;;;0.30;;
72904;SDS011;61048;52.162;4.516;2023-01-06T01:22:05;1.98;;;0.63;;
72904;SDS011;61048;52.162;4.516;2023-01-06T01:24:32;2.20;;;0.30;;
72904;SDS011;61048;52.162;4.516;2023-01-06T01:27:01;2.00;;;0.40;;
72904;SDS011;61048;52.162;4.516;2023-01-06T01:29:27;3.90;;;0.47;;
72904;SDS011;61048;52.162;4.516;2023-01-06T01:31:54;3.67;;;0.90;;
72904;SDS011;61048;52.162;4.516;2023-01-06T01:34:21;1.73;;;0.30;;
72904;SDS011;61048;52.162;4.516;2023-01-06T01:36:49;1.73;;;0.22;;
72904;SDS011;61048;52.162;4.516;2023-01-06T01:39:18;2.70;;;0.90;;
72904;SDS011;61048;52.162;4.516;2023-01-06T01:41:46;2.97;;;0.30;;
72904;SDS011;61048;52.162;4.516;2023-01-06T01:47:19;2.03;;;1.15;;
72904;SDS011;61048;52.162;4.516;2023-01-06T01:49:50;2.15;;;0.47;;
72904;SDS011;61048;52.162;4.516;2023-01-06T01:52:19;2.45;;;0.57;;
72904;SDS011;61048;52.162;4.516;2023-01-06T01:54:48;2.67;;;0.80;;
72904;SDS011;61048;52.162;4.516;2023-01-06T01:57:18;4.03;;;0.90;;
72904;SDS011;61048;52.162;4.516;2023-01-06T01:59:52;1.88;;;0.38;;
72904;SDS011;61048;52.162;4.516;2023-01-06T02:02:19;1.45;;;0.40;;
72904;SDS011;61048;52.162;4.516;2023-01-06T02:04:48;3.83;;;0.75;;
72904;SDS011;61048;52.162;4.516;2023-01-06T02:07:18;3.03;;;0.80;;
72904;SDS011;61048;52.162;4.516;2023-01-06T02:09:50;1.80;;;0.40;;
72904;SDS011;61048;52.162;4.516;2023-01-06T02:12:23;2.00;;;0.65;;
72904;SDS011;61048;52.162;4.516;2023-01-06T02:14:52;2.20;;;0.30;;
72904;SDS011;61048;52.162;4.516;2023-01-06T02:17:30;1.95;;;0.60;;
72904;SDS011;61048;52.162;4.516;2023-01-06T02:20:14;1.95;;;0.30;;
72904;SDS011;61048;52.162;4.516;2023-01-06T02:23:00;2.13;;;0.20;;
72904;SDS011;61048;52.162;4.516;2023-01-06T02:25:56;1.67;;;0.30;;
72904;SDS011;61048;52.162;4.516;2023-01-06T02:28:48;2.67;;;1.23;;
72904;SDS011;61048;52.162;4.516;2023-01-06T02:34:19;1.73;;;0.40;;
72904;SDS011;61048;52.162;4.516;2023-01-06T02:36:54;1.88;;;0.40;;
72904;SDS011;61048;52.162;4.516;2023-01-06T02:39:29;2.58;;;0.30;;
72904;SDS011;61048;52.162;4.516;2023-01-06T02:42:15;1.15;;;0.30;;
72904;SDS011;61048;52.162;4.516;2023-01-06T02:44:47;3.85;;;0.60;;
72904;SDS011;61048;52.162;4.516;2023-01-06T02:47:25;1.40;;;0.30;;
72904;SDS011;61048;52.162;4.516;2023-01-06T02:50:01;1.63;;;0.30;;
72904;SDS011;61048;52.162;4.516;2023-01-06T02:52:35;1.63;;;0.22;;
72904;SDS011;61048;52.162;4.516;2023-01-06T02:55:11;2.15;;;0.63;;
72904;SDS011;61048;52.162;4.516;2023-01-06T02:57:43;1.58;;;0.70;;
72904;SDS011;61048;52.162;4.516;2023-01-06T03:00:15;2.33;;;0.77;;
72904;SDS011;61048;52.162;4.516;2023-01-06T03:02:48;2.20;;;1.35;;
72904;SDS011;61048;52.162;4.516;2023-01-06T03:05:21;1.45;;;0.28;;
72904;SDS011;61048;52.162;4.516;2023-01-06T03:07:49;1.40;;;0.63;;
72904;SDS011;61048;52.162;4.516;2023-01-06T03:10:18;1.55;;;0.38;;
72904;SDS011;61048;52.162;4.516;2023-01-06T03:12:50;2.00;;;0.75;;
72904;SDS011;61048;52.162;4.516;2023-01-06T03:15:18;1.67;;;0.40;;
72904;SDS011;61048;52.162;4.516;2023-01-06T03:17:46;2.55;;;0.80;;
72904;SDS011;61048;52.162;4.516;2023-01-06T03:20:13;1.70;;;0.90;;
72904;SDS011;61048;52.162;4.516;2023-01-06T03:22:41;1.77;;;0.77;;
72904;SDS011;61048;52.162;4.516;2023-01-06T03:25:09;2.17;;;0.22;;
72904;SDS011;61048;52.162;4.516;2023-01-06T03:27:36;2.40;;;1.05;;
72904;SDS011;61048;52.162;4.516;2023-01-06T03:30:04;2.30;;;0.93;;
72904;SDS011;61048;52.162;4.516;2023-01-06T03:32:36;3.92;;;0.40;;
72904;SDS011;61048;52.162;4.516;2023-01-06T03:35:14;1.30;;;0.20;;
72904;SDS011;61048;52.162;4.516;2023-01-06T03:37:57;3.05;;;1.77;;
72904;SDS011;61048;52.162;4.516;2023-01-06T03:40:31;0.70;;;0.20;;
72904;SDS011;61048;52.162;4.516;2023-01-06T03:43:05;2.30;;;0.88;;
72904;SDS011;61048;52.162;4.516;2023-01-06T03:45:41;1.15;;;0.22;;
72904;SDS011;61048;52.162;4.516;2023-01-06T03:48:23;1.63;;;1.00;;
72904;SDS011;61048;52.162;4.516;2023-01-06T03:51:02;2.63;;;1.00;;
72904;SDS011;61048;52.162;4.516;2023-01-06T03:53:37;0.93;;;0.30;;
72904;SDS011;61048;52.162;4.516;2023-01-06T03:56:10;2.88;;;0.30;;
72904;SDS011;61048;52.162;4.516;2023-01-06T03:58:42;1.23;;;0.20;;
72904;SDS011;61048;52.162;4.516;2023-01-06T04:01:11;1.05;;;0.30;;
72904;SDS011;61048;52.162;4.516;2023-01-06T04:03:42;1.15;;;0.50;;
72904;SDS011;61048;52.162;4.516;2023-01-06T04:06:10;2.35;;;0.22;;
72904;SDS011;61048;52.162;4.516;2023-01-06T04:08:38;1.30;;;0.30;;
72904;SDS011;61048;52.162;4.516;2023-01-06T04:11:05;1.27;;;0.35;;
72904;SDS011;61048;52.162;4.516;2023-01-06T04:13:32;4.07;;;0.30;;
72904;SDS011;61048;52.162;4.516;2023-01-06T04:15:58;0.82;;;0.20;;
72904;SDS011;61048;52.162;4.516;2023-01-06T04:18:25;1.40;;;0.55;;
72904;SDS011;61048;52.162;4.516;2023-01-06T04:20:52;1.88;;;0.52;;
72904;SDS011;61048;52.162;4.516;2023-01-06T04:23:19;1.65;;;0.70;;
72904;SDS011;61048;52.162;4.516;2023-01-06T04:25:47;1.40;;;0.40;;
72904;SDS011;61048;52.162;4.516;2023-01-06T04:28:14;3.00;;;0.20;;
72904;SDS011;61048;52.162;4.516;2023-01-06T04:30:40;1.10;;;0.20;;
72904;SDS011;61048;52.162;4.516;2023-01-06T04:33:07;2.40;;;0.47;;
72904;SDS011;61048;52.162;4.516;2023-01-06T04:35:34;1.98;;;0.30;;
72904;SDS011;61048;52.162;4.516;2023-01-06T04:38:01;2.05;;;0.20;;
72904;SDS011;61048;52.162;4.516;2023-01-06T04:40:28;1.48;;;0.30;;
72904;SDS011;61048;52.162;4.516;2023-01-06T04:42:56;1.85;;;1.05;;
72904;SDS011;61048;52.162;4.516;2023-01-06T04:45:29;2.75;;;1.10;;
72904;SDS011;61048;52.162;4.516;2023-01-06T04:47:56;1.60;;;0.32;;
72904;SDS011;61048;52.162;4.516;2023-01-06T04:50:23;2.28;;;0.22;;
72904;SDS011;61048;52.162;4.516;2023-01-06T04:52:50;2.15;;;0.70;;
72904;SDS011;61048;52.162;4.516;2023-01-06T04:55:17;2.13;;;0.52;;
72904;SDS011;61048;52.162;4.516;2023-01-06T04:57:43;2.58;;;0.20;;
72904;SDS011;61048;52.162;4.516;2023-01-06T05:00:12;1.48;;;0.30;;
72904;SDS011;61048;52.162;4.516;2023-01-06T05:02:40;2.20;;;0.30;;
72904;SDS011;61048;52.162;4.516;2023-01-06T05:05:07;1.45;;;0.63;;
72904;SDS011;61048;52.162;4.516;2023-01-06T05:07:34;1.33;;;0.22;;
72904;SDS011;61048;52.162;4.516;2023-01-06T05:10:01;1.98;;;0.82;;
72904;SDS011;61048;52.162;4.516;2023-01-06T05:12:29;1.85;;;0.60;;
72904;SDS011;61048;52.162;4.516;2023-01-06T05:14:56;1.40;;;0.30;;
72904;SDS011;61048;52.162;4.516;2023-01-06T05:17:25;1.45;;;0.30;;
72904;SDS011;61048;52.162;4.516;2023-01-06T05:19:52;2.40;;;0.35;;
72904;SDS011;61048;52.162;4.516;2023-01-06T05:22:18;2.08;;;0.40;;
72904;SDS011;61048;52.162;4.516;2023-01-06T05:24:45;1.55;;;0.47;;
72904;SDS011;61048;52.162;4.516;2023-01-06T05:27:12;1.63;;;0.52;;
72904;SDS011;61048;52.162;4.516;2023-01-06T05:29:39;1.15;;;0.20;;
72904;SDS011;61048;52.162;4.516;2023-01-06T05:32:06;1.73;;;0.28;;
72904;SDS011;61048;52.162;4.516;2023-01-06T05:34:34;2.97;;;0.85;;
72904;SDS011;61048;52.162;4.516;2023-01-06T05:37:01;3.65;;;0.80;;
72904;SDS011;61048;52.162;4.516;2023-01-06T05:39:28;1.30;;;0.30;;
72904;SDS011;61048;52.162;4.516;2023-01-06T05:41:55;1.45;;;0.77;;
72904;SDS011;61048;52.162;4.516;2023-01-06T05:44:22;1.20;;;0.57;;
72904;SDS011;61048;52.162;4.516;2023-01-06T05:46:49;1.95;;;0.88;;
72904;SDS011;61048;52.162;4.516;2023-01-06T05:49:16;3.05;;;0.68;;
72904;SDS011;61048;52.162;4.516;2023-01-06T05:51:44;1.60;;;0.85;;
72904;SDS011;61048;52.162;4.516;2023-01-06T05:54:11;1.33;;;0.30;;
72904;SDS011;61048;52.162;4.516;2023-01-06T05:56:39;3.90;;;0.50;;
72904;SDS011;61048;52.162;4.516;2023-01-06T05:59:05;1.83;;;0.22;;
72904;SDS011;61048;52.162;4.516;2023-01-06T06:01:32;3.92;;;0.15;;
72904;SDS011;61048;52.162;4.516;2023-01-06T06:03:59;2.38;;;0.60;;
72904;SDS011;61048;52.162;4.516;2023-01-06T06:06:27;2.42;;;0.60;;
72904;SDS011;61048;52.162;4.516;2023-01-06T06:08:56;4.55;;;0.88;;
72904;SDS011;61048;52.162;4.516;2023-01-06T06:11:23;16.67;;;2.78;;
72904;SDS011;61048;52.162;4.516;2023-01-06T06:13:51;37.53;;;7.35;;
72904;SDS011;61048;52.162;4.516;2023-01-06T06:16:19;65.00;;;13.95;;
72904;SDS011;61048;52.162;4.516;2023-01-06T06:18:48;102.72;;;21.17;;
72904;SDS011;61048;52.162;4.516;2023-01-06T06:21:17;89.97;;;18.98;;
72904;SDS011;61048;52.162;4.516;2023-01-06T06:23:45;75.30;;;18.67;;
72904;SDS011;61048;52.162;4.516;2023-01-06T06:26:14;71.15;;;16.35;;
72904;SDS011;61048;52.162;4.516;2023-01-06T06:28:41;71.88;;;16.80;;
72904;SDS011;61048;52.162;4.516;2023-01-06T06:31:09;73.22;;;16.67;;
72904;SDS011;61048;52.162;4.516;2023-01-06T06:33:38;63.20;;;16.08;;
72904;SDS011;61048;52.162;4.516;2023-01-06T06:36:05;59.70;;;13.85;;
72904;SDS011;61048;52.162;4.516;2023-01-06T06:38:36;49.55;;;12.88;;
72904;SDS011;61048;52.162;4.516;2023-01-06T06:41:03;39.92;;;9.90;;
72904;SDS011;61048;52.162;4.516;2023-01-06T06:43:31;44.25;;;10.25;;
72904;SDS011;61048;52.162;4.516;2023-01-06T06:45:58;42.05;;;10.45;;
72904;SDS011;61048;52.162;4.516;2023-01-06T06:48:26;32.97;;;8.02;;
72904;SDS011;61048;52.162;4.516;2023-01-06T06:50:56;30.48;;;7.82;;
72904;SDS011;61048;52.162;4.516;2023-01-06T06:53:24;35.92;;;8.32;;
72904;SDS011;61048;52.162;4.516;2023-01-06T06:55:51;31.70;;;7.47;;
72904;SDS011;61048;52.162;4.516;2023-01-06T06:58:18;24.92;;;7.80;;
72904;SDS011;61048;52.162;4.516;2023-01-06T07:00:46;30.77;;;7.63;;
72904;SDS011;61048;52.162;4.516;2023-01-06T07:03:13;29.23;;;6.72;;
72904;SDS011;61048;52.162;4.516;2023-01-06T07:05:40;26.83;;;6.78;;
72904;SDS011;61048;52.162;4.516;2023-01-06T07:08:08;27.30;;;6.18;;
72904;SDS011;61048;52.162;4.516;2023-01-06T07:10:35;20.90;;;4.82;;
72904;SDS011;61048;52.162;4.516;2023-01-06T07:13:02;27.80;;;6.90;;
72904;SDS011;61048;52.162;4.516;2023-01-06T07:15:29;25.75;;;4.65;;
72904;SDS011;61048;52.162;4.516;2023-01-06T07:17:59;21.55;;;4.28;;
72904;SDS011;61048;52.162;4.516;2023-01-06T07:20:27;19.35;;;4.55;;
72904;SDS011;61048;52.162;4.516;2023-01-06T07:22:53;20.90;;;4.97;;
72904;SDS011;61048;52.162;4.516;2023-01-06T07:25:21;14.85;;;4.00;;
72904;SDS011;61048;52.162;4.516;2023-01-06T07:27:51;21.70;;;3.85;;
72904;SDS011;61048;52.162;4.516;2023-01-06T07:30:19;16.25;;;3.70;;
72904;SDS011;61048;52.162;4.516;2023-01-06T07:32:47;20.05;;;4.22;;
72904;SDS011;61048;52.162;4.516;2023-01-06T07:35:15;17.65;;;4.50;;
72904;SDS011;61048;52.162;4.516;2023-01-06T07:37:43;11.57;;;3.33;;
72904;SDS011;61048;52.162;4.516;2023-01-06T07:40:10;17.75;;;2.83;;
72904;SDS011;61048;52.162;4.516;2023-01-06T07:42:37;11.15;;;2.95;;
72904;SDS011;61048;52.162;4.516;2023-01-06T07:45:05;16.45;;;2.97;;
72904;SDS011;61048;52.162;4.516;2023-01-06T07:47:32;14.00;;;2.90;;
72904;SDS011;61048;52.162;4.516;2023-01-06T07:49:59;12.05;;;2.20;;
72904;SDS011;61048;52.162;4.516;2023-01-06T07:52:28;9.32;;;1.63;;
72904;SDS011;61048;52.162;4.516;2023-01-06T07:54:55;10.75;;;2.70;;
72904;SDS011;61048;52.162;4.516;2023-01-06T07:57:23;7.72;;;1.65;;
72904;SDS011;61048;52.162;4.516;2023-01-06T07:59:50;10.50;;;2.75;;
72904;SDS011;61048;52.162;4.516;2023-01-06T08:02:17;8.65;;;1.60;;
72904;SDS011;61048;52.162;4.516;2023-01-06T08:04:44;10.07;;;1.75;;
72904;SDS011;61048;52.162;4.516;2023-01-06T08:07:11;11.93;;;2.42;;
72904;SDS011;61048;52.162;4.516;2023-01-06T08:09:40;12.77;;;1.85;;
72904;SDS011;61048;52.162;4.516;2023-01-06T08:12:07;8.40;;;1.67;;
72904;SDS011;61048;52.162;4.516;2023-01-06T08:14:34;7.22;;;1.27;;
72904;SDS011;61048;52.162;4.516;2023-01-06T08:17:00;6.97;;;0.85;;
72904;SDS011;61048;52.162;4.516;2023-01-06T08:19:27;5.90;;;1.65;;
72904;SDS011;61048;52.162;4.516;2023-01-06T08:21:54;5.72;;;0.98;;
72904;SDS011;61048;52.162;4.516;2023-01-06T08:24:21;5.30;;;1.02;;
72904;SDS011;61048;52.162;4.516;2023-01-06T08:26:49;5.97;;;1.40;;
72904;SDS011;61048;52.162;4.516;2023-01-06T08:29:16;6.38;;;0.80;;
72904;SDS011;61048;52.162;4.516;2023-01-06T08:31:43;6.38;;;0.93;;
72904;SDS011;61048;52.162;4.516;2023-01-06T08:34:10;6.22;;;1.20;;
72904;SDS011;61048;52.162;4.516;2023-01-06T08:36:38;6.70;;;1.08;;
72904;SDS011;61048;52.162;4.516;2023-01-06T08:39:07;7.30;;;0.82;;
72904;SDS011;61048;52.162;4.516;2023-01-06T08:41:34;7.03;;;1.38;;
72904;SDS011;61048;52.162;4.516;2023-01-06T08:44:02;6.25;;;0.75;;
72904;SDS011;61048;52.162;4.516;2023-01-06T08:46:29;5.75;;;1.48;;
72904;SDS011;61048;52.162;4.516;2023-01-06T08:48:56;5.80;;;0.60;;
72904;SDS011;61048;52.162;4.516;2023-01-06T08:51:23;5.57;;;0.52;;
72904;SDS011;61048;52.162;4.516;2023-01-06T08:53:52;5.30;;;1.02;;
72904;SDS011;61048;52.162;4.516;2023-01-06T08:56:20;7.72;;;2.22;;
72904;SDS011;61048;52.162;4.516;2023-01-06T08:58:51;5.97;;;1.10;;
72904;SDS011;61048;52.162;4.516;2023-01-06T09:01:22;5.82;;;0.98;;
72904;SDS011;61048;52.162;4.516;2023-01-06T09:03:50;4.65;;;0.57;;
72904;SDS011;61048;52.162;4.516;2023-01-06T09:06:17;4.88;;;0.70;;
72904;SDS011;61048;52.162;4.516;2023-01-06T09:08:45;4.47;;;0.45;;
72904;SDS011;61048;52.162;4.516;2023-01-06T09:11:12;5.57;;;0.47;;
72904;SDS011;61048;52.162;4.516;2023-01-06T09:13:41;3.35;;;0.43;;
72904;SDS011;61048;52.162;4.516;2023-01-06T09:16:09;4.55;;;0.40;;
72904;SDS011;61048;52.162;4.516;2023-01-06T09:18:38;7.43;;;1.30;;
72904;SDS011;61048;52.162;4.516;2023-01-06T09:21:08;4.45;;;0.30;;
72904;SDS011;61048;52.162;4.516;2023-01-06T09:23:35;4.15;;;2.05;;
72904;SDS011;61048;52.162;4.516;2023-01-06T09:26:02;6.10;;;0.93;;
72904;SDS011;61048;52.162;4.516;2023-01-06T09:28:30;5.95;;;0.70;;
72904;SDS011;61048;52.162;4.516;2023-01-06T09:30:57;4.45;;;0.38;;
72904;SDS011;61048;52.162;4.516;2023-01-06T09:33:24;4.80;;;0.68;;
72904;SDS011;61048;52.162;4.516;2023-01-06T09:35:52;5.35;;;0.63;;
72904;SDS011;61048;52.162;4.516;2023-01-06T09:38:19;3.60;;;0.52;;
72904;SDS011;61048;52.162;4.516;2023-01-06T09:40:49;2.40;;;0.22;;
72904;SDS011;61048;52.162;4.516;2023-01-06T09:43:29;4.00;;;0.85;;
72904;SDS011;61048;52.162;4.516;2023-01-06T09:46:04;4.65;;;0.70;;
72904;SDS011;61048;52.162;4.516;2023-01-06T09:48:34;4.82;;;0.88;;
72904;SDS011;61048;52.162;4.516;2023-01-06T09:51:06;4.30;;;0.43;;
72904;SDS011;61048;52.162;4.516;2023-01-06T09:53:40;3.08;;;0.40;;
72904;SDS011;61048;52.162;4.516;2023-01-06T09:56:12;4.07;;;0.80;;
72904;SDS011;61048;52.162;4.516;2023-01-06T09:58:45;5.38;;;0.98;;
72904;SDS011;61048;52.162;4.516;2023-01-06T10:01:17;4.55;;;0.55;;
72904;SDS011;61048;52.162;4.516;2023-01-06T10:03:50;3.28;;;0.80;;
72904;SDS011;61048;52.162;4.516;2023-01-06T10:06:23;3.33;;;0.85;;
72904;SDS011;61048;52.162;4.516;2023-01-06T10:08:59;5.38;;;1.38;;
72904;SDS011;61048;52.162;4.516;2023-01-06T10:11:36;6.10;;;0.60;;
72904;SDS011;61048;52.162;4.516;2023-01-06T10:14:16;8.65;;;0.93;;
72904;SDS011;61048;52.162;4.516;2023-01-06T10:16:58;7.35;;;1.13;;
72904;SDS011;61048;52.162;4.516;2023-01-06T10:19:36;6.35;;;0.50;;
72904;SDS011;61048;52.162;4.516;2023-01-06T10:22:16;6.43;;;0.93;;
72904;SDS011;61048;52.162;4.516;2023-01-06T10:24:52;10.95;;;1.58;;
72904;SDS011;61048;52.162;4.516;2023-01-06T10:27:25;12.20;;;1.35;;
72904;SDS011;61048;52.162;4.516;2023-01-06T10:29:57;4.40;;;0.85;;
72904;SDS011;61048;52.162;4.516;2023-01-06T10:32:27;11.02;;;0.90;;
72904;SDS011;61048;52.162;4.516;2023-01-06T10:34:57;12.98;;;1.75;;
72904;SDS011;61048;52.162;4.516;2023-01-06T10:37:27;6.10;;;1.40;;
72904;SDS011;61048;52.162;4.516;2023-01-06T10:40:03;9.30;;;1.88;;
72904;SDS011;61048;52.162;4.516;2023-01-06T10:42:42;11.10;;;2.47;;
72904;SDS011;61048;52.162;4.516;2023-01-06T10:45:27;9.65;;;1.40;;
72904;SDS011;61048;52.162;4.516;2023-01-06T10:47:59;7.05;;;1.17;;
72904;SDS011;61048;52.162;4.516;2023-01-06T10:50:27;7.28;;;1.60;;
72904;SDS011;61048;52.162;4.516;2023-01-06T10:52:55;7.20;;;0.90;;
72904;SDS011;61048;52.162;4.516;2023-01-06T10:55:28;8.35;;;1.83;;
72904;SDS011;61048;52.162;4.516;2023-01-06T10:58:04;8.65;;;1.35;;
72904;SDS011;61048;52.162;4.516;2023-01-06T11:00:42;6.78;;;0.88;;
72904;SDS011;61048;52.162;4.516;2023-01-06T11:03:20;7.30;;;1.73;;
72904;SDS011;61048;52.162;4.516;2023-01-06T11:05:47;8.88;;;0.90;;
72904;SDS011;61048;52.162;4.516;2023-01-06T11:08:28;7.00;;;1.02;;
72904;SDS011;61048;52.162;4.516;2023-01-06T11:10:55;6.80;;;0.85;;
72904;SDS011;61048;52.162;4.516;2023-01-06T11:13:23;5.15;;;1.00;;
72904;SDS011;61048;52.162;4.516;2023-01-06T11:15:53;3.55;;;0.60;;
72904;SDS011;61048;52.162;4.516;2023-01-06T11:18:23;5.95;;;0.85;;
72904;SDS011;61048;52.162;4.516;2023-01-06T11:21:01;7.88;;;0.85;;
72904;SDS011;61048;52.162;4.516;2023-01-06T11:23:32;7.97;;;1.10;;
72904;SDS011;61048;52.162;4.516;2023-01-06T11:26:04;5.72;;;0.45;;
72904;SDS011;61048;52.162;4.516;2023-01-06T11:28:37;7.68;;;0.95;;
72904;SDS011;61048;52.162;4.516;2023-01-06T11:31:05;5.38;;;0.68;;
72904;SDS011;61048;52.162;4.516;2023-01-06T11:33:35;3.65;;;0.70;;
72904;SDS011;61048;52.162;4.516;2023-01-06T11:36:12;5.35;;;0.95;;
72904;SDS011;61048;52.162;4.516;2023-01-06T11:38:42;2.60;;;0.40;;
72904;SDS011;61048;52.162;4.516;2023-01-06T11:41:11;3.65;;;0.50;;
72904;SDS011;61048;52.162;4.516;2023-01-06T11:43:42;1.70;;;0.40;;
72904;SDS011;61048;52.162;4.516;2023-01-06T11:46:11;2.78;;;0.82;;
72904;SDS011;61048;52.162;4.516;2023-01-06T11:48:41;2.45;;;0.40;;
72904;SDS011;61048;52.162;4.516;2023-01-06T11:51:12;5.72;;;0.65;;
72904;SDS011;61048;52.162;4.516;2023-01-06T11:53:39;6.20;;;1.17;;
72904;SDS011;61048;52.162;4.516;2023-01-06T11:56:20;4.90;;;1.02;;
72904;SDS011;61048;52.162;4.516;2023-01-06T11:58:51;3.90;;;0.70;;
72904;SDS011;61048;52.162;4.516;2023-01-06T12:01:25;3.63;;;1.02;;
72904;SDS011;61048;52.162;4.516;2023-01-06T12:03:59;3.33;;;0.40;;
72904;SDS011;61048;52.162;4.516;2023-01-06T12:06:33;4.13;;;0.40;;
72904;SDS011;61048;52.162;4.516;2023-01-06T12:09:05;6.90;;;0.60;;
72904;SDS011;61048;52.162;4.516;2023-01-06T12:11:41;3.42;;;0.47;;
72904;SDS011;61048;52.162;4.516;2023-01-06T12:14:11;6.57;;;0.80;;
72904;SDS011;61048;52.162;4.516;2023-01-06T12:16:41;6.20;;;1.00;;
72904;SDS011;61048;52.162;4.516;2023-01-06T12:19:30;6.25;;;0.77;;
72904;SDS011;61048;52.162;4.516;2023-01-06T12:22:01;4.65;;;0.50;;
72904;SDS011;61048;52.162;4.516;2023-01-06T12:24:29;2.17;;;0.32;;
72904;SDS011;61048;52.162;4.516;2023-01-06T12:27:01;4.35;;;0.80;;
72904;SDS011;61048;52.162;4.516;2023-01-06T12:29:31;2.25;;;0.30;;
72904;SDS011;61048;52.162;4.516;2023-01-06T12:32:01;5.72;;;0.68;;
72904;SDS011;61048;52.162;4.516;2023-01-06T12:34:34;4.20;;;0.65;;
72904;SDS011;61048;52.162;4.516;2023-01-06T12:37:10;4.28;;;0.20;;
72904;SDS011;61048;52.162;4.516;2023-01-06T12:39:44;2.38;;;0.70;;
72904;SDS011;61048;52.162;4.516;2023-01-06T12:42:19;4.65;;;0.90;;
72904;SDS011;61048;52.162;4.516;2023-01-06T12:44:53;3.38;;;0.35;;
72904;SDS011;61048;52.162;4.516;2023-01-06T12:47:24;5.65;;;1.17;;
72904;SDS011;61048;52.162;4.516;2023-01-06T12:49:58;2.53;;;0.38;;
72904;SDS011;61048;52.162;4.516;2023-01-06T12:52:29;5.13;;;1.05;;
72904;SDS011;61048;52.162;4.516;2023-01-06T12:55:00;4.03;;;1.15;;
72904;SDS011;61048;52.162;4.516;2023-01-06T12:57:34;3.95;;;0.70;;
72904;SDS011;61048;52.162;4.516;2023-01-06T13:00:17;3.05;;;0.45;;
72904;SDS011;61048;52.162;4.516;2023-01-06T13:03:07;2.53;;;0.90;;
72904;SDS011;61048;52.162;4.516;2023-01-06T13:06:07;8.38;;;0.60;;
72904;SDS011;61048;52.162;4.516;2023-01-06T13:08:55;6.22;;;1.00;;
72904;SDS011;61048;52.162;4.516;2023-01-06T13:11:35;2.90;;;0.73;;
72904;SDS011;61048;52.162;4.516;2023-01-06T13:14:17;5.07;;;0.43;;
72904;SDS011;61048;52.162;4.516;2023-01-06T13:16:52;4.97;;;0.68;;
72904;SDS011;61048;52.162;4.516;2023-01-06T13:19:26;4.57;;;0.50;;
72904;SDS011;61048;52.162;4.516;2023-01-06T13:22:02;6.28;;;0.65;;
72904;SDS011;61048;52.162;4.516;2023-01-06T13:24:37;3.08;;;1.10;;
72904;SDS011;61048;52.162;4.516;2023-01-06T13:30:14;3.47;;;1.02;;
72904;SDS011;61048;52.162;4.516;2023-01-06T13:32:58;3.35;;;0.35;;
72904;SDS011;61048;52.162;4.516;2023-01-06T13:35:39;5.13;;;0.50;;
72904;SDS011;61048;52.162;4.516;2023-01-06T13:38:18;3.38;;;0.73;;
72904;SDS011;61048;52.162;4.516;2023-01-06T13:41:01;4.07;;;0.40;;
72904;SDS011;61048;52.162;4.516;2023-01-06T13:43:31;3.90;;;0.35;;
72904;SDS011;61048;52.162;4.516;2023-01-06T13:46:01;6.53;;;0.70;;
72904;SDS011;61048;52.162;4.516;2023-01-06T13:48:32;3.65;;;0.30;;
72904;SDS011;61048;52.162;4.516;2023-01-06T13:51:03;1.90;;;0.28;;
72904;SDS011;61048;52.162;4.516;2023-01-06T13:53:35;3.03;;;0.55;;
72904;SDS011;61048;52.162;4.516;2023-01-06T13:56:22;4.20;;;1.17;;
72904;SDS011;61048;52.162;4.516;2023-01-06T14:01:47;3.75;;;0.65;;
72904;SDS011;61048;52.162;4.516;2023-01-06T14:07:11;2.58;;;0.52;;
72904;SDS011;61048;52.162;4.516;2023-01-06T14:09:45;5.65;;;1.20;;
72904;SDS011;61048;52.162;4.516;2023-01-06T14:12:15;3.00;;;0.43;;
72904;SDS011;61048;52.162;4.516;2023-01-06T14:14:52;3.95;;;0.68;;
72904;SDS011;61048;52.162;4.516;2023-01-06T14:17:29;3.70;;;1.33;;
72904;SDS011;61048;52.162;4.516;2023-01-06T14:20:02;4.70;;;1.20;;
72904;SDS011;61048;52.162;4.516;2023-01-06T14:22:30;3.90;;;0.73;;
72904;SDS011;61048;52.162;4.516;2023-01-06T14:24:58;2.65;;;0.40;;
72904;SDS011;61048;52.162;4.516;2023-01-06T14:30:32;3.70;;;0.85;;
72904;SDS011;61048;52.162;4.516;2023-01-06T14:33:03;2.58;;;0.73;;
72904;SDS011;61048;52.162;4.516;2023-01-06T14:35:45;3.28;;;0.85;;
72904;SDS011;61048;52.162;4.516;2023-01-06T14:38:15;4.07;;;0.30;;
72904;SDS011;61048;52.162;4.516;2023-01-06T14:40:52;3.50;;;0.60;;
72904;SDS011;61048;52.162;4.516;2023-01-06T14:43:26;4.53;;;0.98;;
72904;SDS011;61048;52.162;4.516;2023-01-06T14:46:07;2.53;;;0.40;;
72904;SDS011;61048;52.162;4.516;2023-01-06T14:48:43;3.45;;;0.35;;
72904;SDS011;61048;52.162;4.516;2023-01-06T14:51:17;3.28;;;0.70;;
72904;SDS011;61048;52.162;4.516;2023-01-06T14:53:47;2.22;;;0.30;;
72904;SDS011;61048;52.162;4.516;2023-01-06T14:56:20;2.78;;;0.35;;
72904;SDS011;61048;52.162;4.516;2023-01-06T14:58:48;2.72;;;0.73;;
72904;SDS011;61048;52.162;4.516;2023-01-06T15:01:20;2.50;;;0.68;;
72904;SDS011;61048;52.162;4.516;2023-01-06T15:03:56;2.97;;;0.85;;
72904;SDS011;61048;52.162;4.516;2023-01-06T15:06:25;3.05;;;0.75;;
72904;SDS011;61048;52.162;4.516;2023-01-06T15:08:53;5.28;;;0.85;;
72904;SDS011;61048;52.162;4.516;2023-01-06T15:11:23;3.60;;;1.52;;
72904;SDS011;61048;52.162;4.516;2023-01-06T15:13:52;1.55;;;0.68;;
72904;SDS011;61048;52.162;4.516;2023-01-06T15:16:20;3.25;;;0.30;;
72904;SDS011;61048;52.162;4.516;2023-01-06T15:18:57;2.28;;;0.35;;
72904;SDS011;61048;52.162;4.516;2023-01-06T15:21:24;2.83;;;0.57;;
72904;SDS011;61048;52.162;4.516;2023-01-06T15:23:52;2.50;;;0.20;;